Time;durP1;ratioP1;P1;durP2;ratioP2;P2;SDS_P1;SDS_P2;PMS_P1;PMS_P2;Temp;Humidity;BMP_temperature;BMP_pressure;BME280_temperature;BME280_humidity;BME280_pressure;Samples;Min_cycle;Max_cycle;Signal;HPM_P1;HPM_P2
2021/08/24 04:01:15;;;;;;;10.63;9.20;;;11.60;96.30;;;;;;5598473;23;20513;-79
2021/08/24 04:03:41;;;;;;;16.20;10.83;;;11.60;96.30;;;;;;4944501;29;20969;-79
2021/08/24 04:06:06;;;;;;;19.50;10.90;;;11.60;96.30;;;;;;4956306;28;20519;-79
2021/08/24 04:08:32;;;;;;;11.10;10.00;;;11.60;96.30;;;;;;4958921;29;20170;-79
2021/08/24 04:10:58;;;;;;;10.30;9.40;;;11.60;96.30;;;;;;4959885;29;20248;-80
2021/08/24 04:13:23;;;;;;;14.23;11.17;;;11.70;96.30;;;;;;4955571;28;20194;-80
2021/08/24 04:15:49;;;;;;;13.40;10.57;;;11.60;96.30;;;;;;4962553;28;20190;-81
2021/08/24 04:18:15;;;;;;;13.63;9.97;;;11.60;96.30;;;;;;4962276;28;20179;-80
2021/08/24 04:20:42;;;;;;;15.93;11.17;;;11.60;96.30;;;;;;4951157;28;20199;-80
2021/08/24 04:23:11;;;;;;;10.63;9.73;;;11.60;96.30;;;;;;4934175;29;20906;-80
2021/08/24 04:25:37;;;;;;;14.83;10.90;;;11.60;96.30;;;;;;4934955;29;20427;-80
2021/08/24 04:28:02;;;;;;;10.80;9.73;;;11.60;96.30;;;;;;4934887;29;20915;-79
2021/08/24 04:30:29;;;;;;;11.50;10.50;;;11.60;96.30;;;;;;4936087;29;20251;-80
2021/08/24 04:32:54;;;;;;;12.53;9.37;;;11.60;96.30;;;;;;4934360;29;20183;-80
2021/08/24 04:35:20;;;;;;;12.00;9.43;;;11.60;96.30;;;;;;4936107;29;20435;-80
2021/08/24 04:37:45;;;;;;;8.13;7.40;;;11.60;96.30;;;;;;4934849;29;20202;-81
2021/08/24 04:40:11;;;;;;;13.57;8.20;;;11.60;96.30;;;;;;4934793;29;20554;-81
2021/08/24 04:42:37;;;;;;;10.00;8.57;;;11.50;96.30;;;;;;4935065;29;20204;-81
2021/08/24 04:45:04;;;;;;;10.60;7.97;;;11.50;96.30;;;;;;4935235;29;20428;-81
2021/08/24 04:47:29;;;;;;;10.67;8.10;;;11.50;96.30;;;;;;4935280;29;20597;-82
2021/08/24 04:49:55;;;;;;;13.40;8.63;;;11.50;96.30;;;;;;4936186;29;20427;-80
2021/08/24 04:52:20;;;;;;;8.30;7.50;;;11.50;96.30;;;;;;4934938;29;20574;-81
2021/08/24 04:54:46;;;;;;;9.13;8.20;;;11.50;96.30;;;;;;4935159;29;20211;-81
2021/08/24 04:57:12;;;;;;;14.60;8.23;;;11.50;96.30;;;;;;4936158;29;20525;-82
2021/08/24 04:59:37;;;;;;;13.33;7.63;;;11.50;96.30;;;;;;4934795;29;20183;-80
2021/08/24 05:02:03;;;;;;;16.47;8.43;;;11.50;96.30;;;;;;4927635;29;20252;-81
2021/08/24 05:04:28;;;;;;;14.40;8.57;;;11.50;96.30;;;;;;4916181;29;20211;-81
2021/08/24 05:06:54;;;;;;;10.33;8.10;;;11.50;96.30;;;;;;4916025;29;20176;-81
2021/08/24 05:09:20;;;;;;;15.60;8.20;;;11.40;96.30;;;;;;4915473;29;20208;-80
2021/08/24 05:11:46;;;;;;;9.50;8.70;;;11.50;96.30;;;;;;4914832;29;20211;-81
2021/08/24 05:14:11;;;;;;;14.73;8.80;;;11.50;96.30;;;;;;4916941;29;20196;-80
2021/08/24 05:16:38;;;;;;;10.57;9.57;;;11.50;96.30;;;;;;4919874;29;20459;-80
2021/08/24 05:19:04;;;;;;;11.17;8.80;;;11.50;96.30;;;;;;4922385;29;20179;-81
2021/08/24 05:21:30;;;;;;;11.13;10.07;;;11.50;96.30;;;;;;4920679;29;20523;-81
2021/08/24 05:23:56;;;;;;;11.60;9.50;;;11.50;96.30;;;;;;4919926;29;20507;-80
2021/08/24 05:26:22;;;;;;;16.10;10.60;;;11.50;96.30;;;;;;4921473;29;20696;-80
2021/08/24 05:28:48;;;;;;;14.80;10.33;;;11.50;96.30;;;;;;4938728;29;20423;-82
2021/08/24 05:31:14;;;;;;;11.77;9.83;;;11.50;96.30;;;;;;4940789;29;20286;-82
2021/08/24 05:33:41;;;;;;;13.37;10.93;;;11.60;96.30;;;;;;4941236;29;20447;-82
2021/08/24 05:36:07;;;;;;;14.17;11.20;;;11.50;96.30;;;;;;4938989;29;20455;-81
2021/08/24 05:38:34;;;;;;;14.20;10.93;;;11.60;96.30;;;;;;4940802;29;20470;-83
2021/08/24 05:41:01;;;;;;;12.17;10.93;;;11.60;96.30;;;;;;4940105;29;20810;-82
2021/08/24 05:43:28;;;;;;;15.00;11.83;;;11.50;96.30;;;;;;4940281;29;20427;-84
2021/08/24 05:45:56;;;;;;;15.07;10.73;;;11.60;96.30;;;;;;4939094;29;20419;-83
2021/08/24 05:48:22;;;;;;;19.50;11.93;;;11.50;96.30;;;;;;4940685;29;20407;-83
2021/08/24 05:50:48;;;;;;;11.93;10.77;;;11.50;96.30;;;;;;4939397;29;20471;-82
2021/08/24 05:53:14;;;;;;;11.73;10.50;;;11.50;96.30;;;;;;4939133;29;20462;-82
2021/08/24 05:55:39;;;;;;;14.73;11.30;;;11.50;96.30;;;;;;4940418;29;20423;-82
2021/08/24 05:58:04;;;;;;;13.03;11.73;;;11.50;96.30;;;;;;4939305;29;20660;-82
2021/08/24 06:00:30;;;;;;;15.67;11.10;;;11.50;96.30;;;;;;4939683;29;20210;-82
2021/08/24 06:02:55;;;;;;;12.03;10.83;;;11.50;96.30;;;;;;4938636;29;20196;-81
2021/08/24 06:05:21;;;;;;;13.03;11.07;;;11.50;96.30;;;;;;4939012;29;20179;-81
2021/08/24 06:07:46;;;;;;;18.63;11.83;;;11.50;96.30;;;;;;4939319;29;20175;-82
2021/08/24 06:10:12;;;;;;;15.70;11.47;;;11.50;96.30;;;;;;4939181;29;20653;-83
2021/08/24 06:12:37;;;;;;;10.73;9.60;;;11.50;96.30;;;;;;4940983;29;20176;-82
2021/08/24 06:15:06;;;;;;;12.43;10.97;;;11.50;96.30;;;;;;4941099;29;20703;-83
2021/08/24 06:17:31;;;;;;;16.07;10.67;;;11.50;96.30;;;;;;4940593;29;20701;-82
2021/08/24 06:19:57;;;;;;;19.30;12.07;;;11.40;96.30;;;;;;4939524;29;20455;-82
2021/08/24 06:22:22;;;;;;;31.13;13.23;;;11.40;96.30;;;;;;4939362;29;20207;-83
2021/08/24 06:24:48;;;;;;;21.63;13.00;;;11.40;96.30;;;;;;4938633;29;20191;-84
2021/08/24 06:27:13;;;;;;;16.30;12.60;;;11.40;96.30;;;;;;4941208;29;20255;-82
2021/08/24 06:29:39;;;;;;;20.77;12.40;;;11.40;96.30;;;;;;4940832;28;20176;-83
2021/08/24 06:32:06;;;;;;;21.73;12.53;;;11.40;96.30;;;;;;4939775;29;20207;-81
2021/08/24 06:34:34;;;;;;;14.83;13.00;;;11.40;96.30;;;;;;4928157;29;20204;-81
2021/08/24 06:36:59;;;;;;;27.47;13.17;;;11.40;96.30;;;;;;4928429;29;20504;-81
2021/08/24 06:39:25;;;;;;;25.23;13.40;;;11.40;96.30;;;;;;4922373;29;20440;-82
2021/08/24 06:41:51;;;;;;;40.90;13.33;;;11.40;96.30;;;;;;4923371;29;20203;-81
2021/08/24 06:44:16;;;;;;;36.37;13.33;;;11.40;96.30;;;;;;4936206;29;20175;-81
2021/08/24 06:46:42;;;;;;;24.60;12.20;;;11.50;96.30;;;;;;4939378;29;20599;-81
2021/08/24 06:49:08;;;;;;;26.40;11.67;;;11.50;96.30;;;;;;4937940;29;20179;-81
2021/08/24 06:51:35;;;;;;;18.00;13.07;;;11.50;96.30;;;;;;4939064;29;20235;-82
2021/08/24 06:54:02;;;;;;;18.00;13.33;;;11.50;96.30;;;;;;4942378;29;20415;-80
2021/08/24 06:56:28;;;;;;;15.97;13.00;;;11.40;96.30;;;;;;4942879;29;20459;-81
2021/08/24 06:58:54;;;;;;;20.57;12.30;;;11.50;96.30;;;;;;4931021;29;20429;-83
2021/08/24 07:01:23;;;;;;;16.83;12.33;;;11.50;96.30;;;;;;4927881;29;20480;-80
2021/08/24 07:03:48;;;;;;;14.53;13.17;;;11.50;96.30;;;;;;4941238;29;20187;-80
2021/08/24 07:06:14;;;;;;;24.70;12.73;;;11.50;96.30;;;;;;4941590;29;20450;-81
2021/08/24 07:08:40;;;;;;;20.80;11.50;;;11.50;96.30;;;;;;4941723;29;20176;-82
2021/08/24 07:11:06;;;;;;;21.07;11.53;;;11.50;96.30;;;;;;4940511;29;20197;-80
2021/08/24 07:13:33;;;;;;;18.67;11.23;;;11.50;96.30;;;;;;4929368;29;20275;-82
2021/08/24 07:15:59;;;;;;;26.93;12.53;;;11.50;96.30;;;;;;4928069;29;20479;-80
2021/08/24 07:18:24;;;;;;;34.27;11.63;;;11.50;96.30;;;;;;4940393;29;20419;-81
2021/08/24 07:20:52;;;;;;;20.20;11.40;;;11.50;96.30;;;;;;4941332;29;20198;-82
2021/08/24 07:23:18;;;;;;;13.50;11.77;;;11.50;96.30;;;;;;4941995;29;20806;-80
2021/08/24 07:25:43;;;;;;;14.53;12.33;;;11.50;96.30;;;;;;4941185;29;20439;-85
2021/08/24 07:28:12;;;;;;;15.40;12.93;;;11.50;96.30;;;;;;4940934;29;20183;-80
2021/08/24 07:30:43;;;;;;;17.93;11.80;;;11.50;96.30;;;;;;4940646;29;20672;-80
2021/08/24 07:33:09;;;;;;;14.13;12.70;;;11.60;96.30;;;;;;4940234;29;20412;-83
2021/08/24 07:35:35;;;;;;;13.07;11.77;;;11.60;96.30;;;;;;4940014;29;20426;-80
2021/08/24 07:38:01;;;;;;;18.57;12.80;;;11.60;96.30;;;;;;4940543;29;20202;-80
2021/08/24 07:40:28;;;;;;;15.17;11.93;;;11.60;96.30;;;;;;4942376;29;20160;-81
2021/08/24 07:42:55;;;;;;;17.73;12.20;;;11.70;96.30;;;;;;4941923;29;20530;-80
2021/08/24 07:45:21;;;;;;;12.43;11.30;;;11.70;96.30;;;;;;4941395;29;20911;-80
2021/08/24 07:47:47;;;;;;;20.73;13.37;;;11.70;96.30;;;;;;4942096;29;20471;-80
2021/08/24 07:50:13;;;;;;;20.27;11.03;;;11.70;96.30;;;;;;4940665;29;20243;-80
2021/08/24 07:52:38;;;;;;;28.40;10.60;;;11.60;96.30;;;;;;4942211;29;20427;-80
2021/08/24 07:55:06;;;;;;;77.73;12.40;;;11.60;96.30;;;;;;4942568;29;20494;-81
2021/08/24 07:57:32;;;;;;;80.80;13.67;;;11.60;96.30;;;;;;4942740;29;21020;-80
2021/08/24 07:59:57;;;;;;;126.53;13.93;;;11.50;96.30;;;;;;4941961;29;20515;-80
2021/08/24 08:02:23;;;;;;;74.00;12.43;;;11.40;96.30;;;;;;4948385;29;20223;-81
2021/08/24 08:04:48;;;;;;;161.57;16.30;;;11.50;96.30;;;;;;4937938;29;20200;-81
2021/08/24 08:07:14;;;;;;;108.93;13.07;;;11.50;96.30;;;;;;4922827;29;20172;-81
2021/08/24 08:09:40;;;;;;;121.03;11.73;;;11.60;96.30;;;;;;4921285;29;20176;-80
2021/08/24 08:12:06;;;;;;;105.20;13.50;;;11.60;96.30;;;;;;4921080;29;20255;-79
2021/08/24 08:14:31;;;;;;;71.20;11.60;;;11.60;96.30;;;;;;4938330;29;20185;-84
2021/08/24 08:16:57;;;;;;;11.33;9.43;;;11.70;96.30;;;;;;4944350;29;20461;-80
2021/08/24 08:19:22;;;;;;;11.23;10.13;;;11.70;96.30;;;;;;4939368;29;20242;-82
2021/08/24 08:21:48;;;;;;;14.23;9.87;;;11.80;96.30;;;;;;4934053;29;20202;-81
2021/08/24 08:24:13;;;;;;;13.47;9.63;;;11.80;96.30;;;;;;4935760;29;20581;-82
2021/08/24 08:26:39;;;;;;;15.43;9.50;;;12.00;96.30;;;;;;4934722;29;20183;-81
2021/08/24 08:29:09;;;;;;;13.60;10.60;;;12.00;96.30;;;;;;4935760;29;20173;-82
2021/08/24 08:31:37;;;;;;;14.57;10.57;;;12.20;96.30;;;;;;4934017;29;20578;-82
2021/08/24 08:34:03;;;;;;;25.47;10.60;;;12.20;96.30;;;;;;4934420;29;20858;-82
2021/08/24 08:36:29;;;;;;;82.73;11.37;;;12.20;96.30;;;;;;4935639;29;20451;-82
2021/08/24 08:38:54;;;;;;;138.97;11.87;;;12.20;96.30;;;;;;4935495;29;20178;-81
2021/08/24 08:41:30;;;;;;;62.60;11.50;;;12.10;96.30;;;;;;4933383;29;20195;-82
2021/08/24 08:44:17;;;;;;;129.47;10.87;;;12.10;96.30;;;;;;4934323;29;20274;-82
2021/08/24 08:47:00;;;;;;;74.87;9.50;;;12.00;96.30;;;;;;4935214;29;20410;-81
2021/08/24 08:49:34;;;;;;;105.83;13.00;;;12.00;96.30;;;;;;4934444;29;20411;-82
2021/08/24 08:52:18;;;;;;;111.53;12.87;;;12.00;96.30;;;;;;4933405;29;20439;-81
2021/08/24 08:55:13;;;;;;;40.13;11.30;;;12.00;96.30;;;;;;4935065;29;20414;-80
2021/08/24 08:58:02;;;;;;;10.73;9.80;;;12.10;96.30;;;;;;4944092;29;20447;-81
2021/08/24 09:00:45;;;;;;;10.30;9.37;;;12.10;96.30;;;;;;4942677;29;20430;-81
2021/08/24 09:03:44;;;;;;;10.90;9.77;;;12.10;96.30;;;;;;4934764;29;20470;-80
2021/08/24 09:06:11;;;;;;;14.87;11.37;;;12.20;96.30;;;;;;4933211;29;20396;-80
2021/08/24 09:08:38;;;;;;;11.63;10.43;;;12.30;96.30;;;;;;4946164;29;20429;-81
2021/08/24 09:11:06;;;;;;;17.47;14.20;;;12.20;96.30;;;;;;4914101;29;20471;-81
2021/08/24 09:13:37;;;;;;;19.90;12.73;;;12.20;96.30;;;;;;4914984;29;20428;-76
2021/08/24 09:16:36;;;;;;;35.30;12.63;;;12.30;96.30;;;;;;4947504;29;20770;-78
2021/08/24 09:19:13;;;;;;;61.07;11.50;;;12.10;96.30;;;;;;4918363;29;20483;-77
2021/08/24 09:21:41;;;;;;;23.63;10.50;;;12.20;96.30;;;;;;4930820;29;20467;-77
2021/08/24 09:24:29;;;;;;;17.33;11.07;;;12.20;96.30;;;;;;4947095;29;20859;-78
2021/08/24 09:27:02;;;;;;;16.90;12.50;;;12.20;96.30;;;;;;4917451;29;20450;-77
2021/08/24 09:29:33;;;;;;;12.77;11.27;;;12.20;96.30;;;;;;4916765;29;20412;-77
2021/08/24 09:32:01;;;;;;;11.43;10.30;;;12.20;96.30;;;;;;4921732;29;20531;-77
2021/08/24 09:34:29;;;;;;;11.87;10.67;;;12.30;96.30;;;;;;4916639;29;20423;-77
2021/08/24 09:36:55;;;;;;;12.80;11.50;;;12.40;96.30;;;;;;4915482;29;20420;-76
2021/08/24 09:39:45;;;;;;;11.63;10.57;;;12.40;96.30;;;;;;4948914;29;20416;-78
2021/08/24 09:42:11;;;;;;;10.63;9.53;;;12.50;96.30;;;;;;4932142;29;20459;-78
2021/08/24 09:44:36;;;;;;;12.30;10.23;;;12.50;96.30;;;;;;4933970;29;21067;-79
2021/08/24 09:47:15;;;;;;;13.73;12.33;;;12.70;96.30;;;;;;4934193;29;20179;-78
2021/08/24 09:49:43;;;;;;;12.17;11.03;;;12.70;96.30;;;;;;4934210;29;20187;-78
2021/08/24 09:52:23;;;;;;;14.33;10.60;;;12.80;96.30;;;;;;4933494;29;20805;-79
2021/08/24 09:54:48;;;;;;;12.90;10.67;;;12.70;96.30;;;;;;4932897;29;20419;-78
2021/08/24 09:57:26;;;;;;;11.60;10.60;;;12.70;96.30;;;;;;4932925;29;20422;-78
2021/08/24 10:00:00;;;;;;;12.50;11.10;;;12.70;96.30;;;;;;4933311;29;20408;-80
2021/08/24 10:02:35;;;;;;;14.03;12.03;;;12.80;96.30;;;;;;4935897;29;20474;-79
2021/08/24 10:05:00;;;;;;;13.50;11.30;;;12.90;96.30;;;;;;4936607;29;20410;-80
2021/08/24 10:07:41;;;;;;;13.83;11.47;;;12.90;96.30;;;;;;4936743;29;20412;-79
2021/08/24 10:10:20;;;;;;;13.17;11.03;;;12.70;96.30;;;;;;4937727;29;20166;-78
2021/08/24 10:12:51;;;;;;;13.20;9.53;;;12.60;96.30;;;;;;4936954;29;20466;-78
2021/08/24 10:15:33;;;;;;;10.93;9.60;;;12.50;96.30;;;;;;4938148;29;20884;-78
2021/08/24 10:18:07;;;;;;;13.17;9.93;;;12.50;96.30;;;;;;4938221;29;20418;-79
2021/08/24 10:20:41;;;;;;;10.70;9.10;;;12.50;96.30;;;;;;4938368;29;20435;-79
2021/08/24 10:23:25;;;;;;;11.17;9.90;;;12.70;96.30;;;;;;4937015;29;20455;-78
2021/08/24 10:25:54;;;;;;;9.37;8.47;;;12.70;96.30;;;;;;4947307;29;20410;-79
2021/08/24 10:28:24;;;;;;;10.13;9.07;;;12.80;96.30;;;;;;4925719;29;20417;-79
2021/08/24 10:31:22;;;;;;;11.57;8.70;;;12.90;96.30;;;;;;4917550;29;20468;-79
2021/08/24 10:33:54;;;;;;;9.10;8.20;;;13.00;96.30;;;;;;4917498;29;20421;-79
2021/08/24 10:36:34;;;;;;;9.73;8.80;;;13.00;96.30;;;;;;4917448;29;20407;-79
2021/08/24 10:39:23;;;;;;;11.80;8.33;;;12.90;96.30;;;;;;4918477;29;20401;-79
2021/08/24 10:42:18;;;;;;;14.50;8.10;;;12.90;96.30;;;;;;4919012;29;20500;-79
2021/08/24 10:45:02;;;;;;;9.57;6.80;;;12.80;96.30;;;;;;4918746;29;20520;-79
2021/08/24 10:47:52;;;;;;;9.37;7.37;;;12.80;96.30;;;;;;4917323;29;20431;-78
2021/08/24 10:50:41;;;;;;;7.53;6.80;;;12.70;96.30;;;;;;4917910;29;20412;-79
2021/08/24 10:53:25;;;;;;;7.40;6.70;;;12.70;96.30;;;;;;4929662;29;20423;-79
2021/08/24 10:56:04;;;;;;;8.40;7.37;;;12.60;96.30;;;;;;4936247;29;20424;-79
2021/08/24 10:58:41;;;;;;;20.63;7.77;;;12.60;96.30;;;;;;4936961;29;20427;-79
2021/08/24 11:01:40;;;;;;;8.63;7.83;;;12.60;96.30;;;;;;4936313;29;20455;-79
2021/08/24 11:04:23;;;;;;;8.00;7.30;;;12.60;96.30;;;;;;4937630;29;20430;-79
2021/08/24 11:06:53;;;;;;;7.57;6.77;;;12.60;96.30;;;;;;4937287;29;20834;-79
2021/08/24 11:09:29;;;;;;;9.77;7.53;;;12.60;96.30;;;;;;4935909;29;20411;-79
2021/08/24 11:12:11;;;;;;;13.20;7.23;;;12.60;96.30;;;;;;4934877;29;20458;-79
2021/08/24 11:14:49;;;;;;;10.47;6.73;;;12.50;96.30;;;;;;4937674;29;20473;-79
2021/08/24 11:17:33;;;;;;;8.20;7.07;;;12.50;96.30;;;;;;4935992;29;20790;-79
2021/08/24 11:20:34;;;;;;;7.27;6.63;;;12.60;96.30;;;;;;4926402;29;20421;-78
2021/08/24 11:23:28;;;;;;;7.60;6.83;;;12.70;96.30;;;;;;4917700;29;20972;-79
2021/08/24 11:26:08;;;;;;;10.47;7.10;;;12.70;96.30;;;;;;4917756;29;20397;-79
2021/08/24 11:28:39;;;;;;;8.20;6.47;;;12.70;96.30;;;;;;4917791;29;20754;-79
2021/08/24 11:31:14;;;;;;;8.83;6.30;;;12.70;96.30;;;;;;4916158;29;20444;-78
2021/08/24 11:34:02;;;;;;;7.77;6.63;;;12.80;96.30;;;;;;4918241;29;20396;-79
2021/08/24 11:36:43;;;;;;;13.00;6.87;;;12.80;96.30;;;;;;4915530;29;20424;-79
2021/08/24 11:39:31;;;;;;;7.40;6.43;;;12.80;96.30;;;;;;4915907;29;20956;-79
2021/08/24 11:42:00;;;;;;;10.53;7.73;;;12.70;96.30;;;;;;4932796;29;20473;-79
2021/08/24 11:44:42;;;;;;;11.30;7.40;;;12.60;96.30;;;;;;4934701;29;20427;-79
2021/08/24 11:47:29;;;;;;;10.57;7.60;;;12.70;96.30;;;;;;4935764;29;20907;-79
2021/08/24 11:50:00;;;;;;;9.70;7.27;;;12.70;96.30;;;;;;4925514;29;20828;-78
2021/08/24 11:52:26;;;;;;;10.63;7.80;;;12.70;96.30;;;;;;4923307;29;20447;-79
2021/08/24 11:55:06;;;;;;;10.63;9.00;;;12.70;96.30;;;;;;4929589;29;20422;-77
2021/08/24 11:57:56;;;;;;;10.33;7.40;;;12.70;96.30;;;;;;4934063;29;20278;-78
2021/08/24 12:00:22;;;;;;;13.33;7.53;;;12.70;96.30;;;;;;4935166;29;20408;-78
2021/08/24 12:02:50;;;;;;;11.90;7.80;;;12.70;96.30;;;;;;4934489;29;20461;-78
2021/08/24 12:05:21;;;;;;;10.13;7.10;;;12.70;96.30;;;;;;4934896;29;20420;-78
2021/08/24 12:07:58;;;;;;;7.50;6.80;;;12.60;96.30;;;;;;4935224;29;20881;-78
2021/08/24 12:10:37;;;;;;;7.47;6.77;;;12.50;96.30;;;;;;4934980;29;20454;-77
2021/08/24 12:13:11;;;;;;;9.00;8.13;;;12.50;96.30;;;;;;4934787;29;20504;-78
2021/08/24 12:15:43;;;;;;;8.07;7.17;;;12.60;96.30;;;;;;4935061;29;20400;-78
2021/08/24 12:18:11;;;;;;;8.53;7.67;;;12.60;96.30;;;;;;4933847;29;20424;-78
2021/08/24 12:20:44;;;;;;;13.53;8.03;;;12.70;96.30;;;;;;4935190;29;20439;-79
2021/08/24 12:23:48;;;;;;;10.50;8.83;;;12.70;96.30;;;;;;4920644;29;20611;-78
2021/08/24 12:26:34;;;;;;;13.23;9.60;;;12.70;96.30;;;;;;4926796;29;20423;-78
2021/08/24 12:29:06;;;;;;;12.53;8.80;;;12.70;96.30;;;;;;4934936;29;20420;-78
2021/08/24 12:31:48;;;;;;;11.73;8.87;;;12.80;96.30;;;;;;4932955;29;20935;-78
2021/08/24 12:34:35;;;;;;;12.60;8.40;;;12.90;96.30;;;;;;4932861;29;20419;-78
2021/08/24 12:37:19;;;;;;;10.77;8.60;;;13.10;96.30;;;;;;4934360;29;20411;-78
2021/08/24 12:39:56;;;;;;;10.53;8.70;;;13.20;96.30;;;;;;4934686;29;20410;-78
2021/08/24 12:42:29;;;;;;;16.17;7.80;;;13.50;96.30;;;;;;4931914;29;20551;-78
2021/08/24 12:44:57;;;;;;;9.80;7.30;;;13.50;96.30;;;;;;4924971;29;20814;-78
2021/08/24 12:47:30;;;;;;;14.77;8.50;;;13.60;96.30;;;;;;4922266;29;20413;-77
2021/08/24 12:50:18;;;;;;;10.63;8.13;;;13.60;96.30;;;;;;4924256;29;20408;-78
2021/08/24 12:52:49;;;;;;;13.97;10.93;;;13.70;96.30;;;;;;4913907;29;20984;-78
2021/08/24 12:55:30;;;;;;;18.43;10.43;;;13.80;96.30;;;;;;4915994;29;20477;-79
2021/08/24 12:58:15;;;;;;;12.40;10.73;;;13.80;96.30;;;;;;4925621;29;20426;-78
2021/08/24 13:00:43;;;;;;;17.57;10.70;;;13.90;96.30;;;;;;4933327;29;20454;-77
2021/08/24 13:03:22;;;;;;;16.50;11.60;;;13.90;96.30;;;;;;4934126;29;20459;-78
2021/08/24 13:06:08;;;;;;;13.00;11.03;;;13.80;96.30;;;;;;4934987;29;20423;-77
2021/08/24 13:08:34;;;;;;;21.97;11.27;;;13.90;96.30;;;;;;4923778;29;21065;-79
2021/08/24 13:11:26;;;;;;;16.90;12.27;;;14.10;96.30;;;;;;4920788;29;20530;-79
2021/08/24 13:13:51;;;;;;;19.57;11.23;;;14.40;96.30;;;;;;4916602;29;20800;-79
2021/08/24 13:16:18;;;;;;;13.23;10.27;;;14.80;96.30;;;;;;4916288;29;20451;-79
2021/08/24 13:18:50;;;;;;;19.73;11.17;;;15.30;96.30;;;;;;4933728;29;20258;-79
2021/08/24 13:21:49;;;;;;;13.30;11.03;;;15.80;96.30;;;;;;4933330;29;20525;-79
2021/08/24 13:24:21;;;;;;;11.73;9.20;;;16.30;96.30;;;;;;4938284;29;20412;-78
2021/08/24 13:26:58;;;;;;;13.83;9.70;;;16.60;96.30;;;;;;4938999;29;20423;-79
2021/08/24 13:29:26;;;;;;;10.97;9.20;;;16.80;96.30;;;;;;4935820;29;20415;-79
2021/08/24 13:32:24;;;;;;;15.17;8.70;;;17.00;96.30;;;;;;4934825;29;20435;-79
2021/08/24 13:34:53;;;;;;;14.90;8.30;;;17.00;96.30;;;;;;4935993;29;20415;-79
2021/08/24 13:38:15;;;;;;;9.87;8.17;;;16.70;96.30;;;;;;4939174;29;20415;-78
2021/08/24 13:40:41;;;;;;;10.43;9.00;;;16.90;96.30;;;;;;4939802;29;20446;-78
2021/08/24 13:43:06;;;;;;;9.03;7.80;;;16.40;96.30;;;;;;4939673;29;20466;-79
2021/08/24 13:45:36;;;;;;;12.90;8.83;;;16.20;96.30;;;;;;4946007;29;20211;-79
2021/08/24 13:48:05;;;;;;;8.40;7.20;;;16.20;96.30;;;;;;4937911;29;20187;-79
2021/08/24 13:50:35;;;;;;;8.10;7.30;;;16.30;96.30;;;;;;4937969;29;20942;-79
2021/08/24 13:53:14;;;;;;;10.47;7.53;;;16.70;96.30;;;;;;4938627;29;20445;-78
2021/08/24 13:55:41;;;;;;;8.40;7.60;;;16.80;96.30;;;;;;4938187;29;20899;-79
2021/08/24 13:58:17;;;;;;;8.30;7.50;;;16.80;96.30;;;;;;4938862;29;20450;-79
2021/08/24 14:00:55;;;;;;;7.77;6.97;;;17.30;96.30;;;;;;4938769;29;20461;-79
2021/08/24 14:03:22;;;;;;;11.37;7.00;;;17.60;96.30;;;;;;4937385;29;20462;-78
2021/08/24 14:05:55;;;;;;;6.60;6.00;;;17.70;96.30;;;;;;4938032;29;20415;-78
2021/08/24 14:08:20;;;;;;;7.30;6.00;;;17.70;96.30;;;;;;4921516;29;20424;-78
2021/08/24 14:10:53;;;;;;;5.63;5.13;;;17.50;96.30;;;;;;4919317;29;20531;-77
2021/08/24 14:13:19;;;;;;;5.53;4.90;;;17.70;96.30;;;;;;4918395;29;20633;-78
2021/08/24 14:15:48;;;;;;;7.60;5.00;;;17.50;96.30;;;;;;4919354;29;20472;-77
2021/08/24 14:18:22;;;;;;;11.80;5.77;;;17.40;96.30;;;;;;4934163;29;20419;-77
2021/08/24 14:20:54;;;;;;;5.43;4.93;;;17.60;96.30;;;;;;4933497;29;20536;-78
2021/08/24 14:23:43;;;;;;;13.37;5.17;;;17.90;96.30;;;;;;4929464;29;20549;-76
2021/08/24 14:26:13;;;;;;;7.40;4.97;;;17.80;96.30;;;;;;4928965;29;20417;-78
2021/08/24 14:28:43;;;;;;;4.30;3.80;;;18.10;96.30;;;;;;4919320;29;20400;-78
2021/08/24 14:31:12;;;;;;;9.00;4.90;;;18.00;96.30;;;;;;4918274;29;20452;-78
2021/08/24 14:33:41;;;;;;;5.53;4.70;;;17.80;96.30;;;;;;4919084;29;20432;-78
2021/08/24 14:36:32;;;;;;;4.93;4.07;;;17.50;96.30;;;;;;4930956;29;20491;-77
2021/08/24 14:39:17;;;;;;;4.30;3.20;;;18.00;96.30;;;;;;4931146;29;20523;-78
2021/08/24 14:41:46;;;;;;;5.07;3.67;;;18.50;96.30;;;;;;4934935;29;20466;-78
2021/08/24 14:44:21;;;;;;;9.30;3.30;;;18.70;96.30;;;;;;4927079;29;20434;-78
2021/08/24 14:46:49;;;;;;;3.93;3.50;;;18.50;96.30;;;;;;4931234;29;20919;-78
2021/08/24 14:49:31;;;;;;;5.60;3.80;;;18.50;96.30;;;;;;4929251;29;20420;-77
2021/08/24 14:51:58;;;;;;;7.00;4.17;;;18.30;96.30;;;;;;4930141;29;20526;-78
2021/08/24 14:54:30;;;;;;;4.33;3.60;;;18.70;96.30;;;;;;4930743;29;20928;-77
2021/08/24 14:57:15;;;;;;;5.57;3.37;;;18.80;96.30;;;;;;4930102;29;20475;-77
2021/08/24 14:59:41;;;;;;;6.77;3.53;;;18.70;96.30;;;;;;4937211;29;20439;-78
2021/08/24 15:02:12;;;;;;;6.63;4.00;;;18.50;96.30;;;;;;4924636;29;20894;-75
2021/08/24 15:04:39;;;;;;;3.80;2.70;;;18.00;96.30;;;;;;4923103;29;20180;-76
2021/08/24 15:07:11;;;;;;;8.93;2.80;;;18.00;96.30;;;;;;4926576;29;20478;-75
2021/08/24 15:09:39;;;;;;;6.30;3.40;;;17.50;96.30;;;;;;4936765;29;20450;-75
2021/08/24 15:12:21;;;;;;;7.50;3.53;;;17.30;96.30;;;;;;4934849;29;20447;-75
2021/08/24 15:14:50;;;;;;;6.70;3.30;;;17.30;96.30;;;;;;4937071;29;20432;-77
2021/08/24 15:17:37;;;;;;;4.40;3.30;;;17.60;96.30;;;;;;4931022;29;20515;-77
2021/08/24 15:20:29;;;;;;;5.10;3.47;;;17.80;96.30;;;;;;4937380;29;20403;-75
2021/08/24 15:23:00;;;;;;;7.33;2.97;;;18.00;96.30;;;;;;4936556;29;20466;-75
2021/08/24 15:25:34;;;;;;;4.23;3.37;;;18.20;96.30;;;;;;4937324;29;20427;-78
2021/08/24 15:28:04;;;;;;;7.73;3.10;;;18.30;96.30;;;;;;4938144;29;20428;-77
2021/08/24 15:30:30;;;;;;;3.70;3.40;;;18.60;96.30;;;;;;4939035;29;20411;-77
2021/08/24 15:33:01;;;;;;;3.40;2.87;;;19.10;96.30;;;;;;4934184;29;20789;-76
2021/08/24 15:35:33;;;;;;;5.47;3.30;;;19.00;96.30;;;;;;4924422;29;20768;-75
2021/08/24 15:38:01;;;;;;;4.73;2.70;;;18.80;96.30;;;;;;4932760;29;20432;-77
2021/08/24 15:40:28;;;;;;;9.10;3.30;;;18.60;96.30;;;;;;4919149;29;20424;-76
2021/08/24 15:42:54;;;;;;;3.03;2.73;;;18.30;96.30;;;;;;4931268;29;20459;-77
2021/08/24 15:45:26;;;;;;;3.57;2.77;;;18.40;96.30;;;;;;4939494;29;20499;-76
2021/08/24 15:47:52;;;;;;;6.30;2.70;;;18.40;96.30;;;;;;4937032;29;20179;-75
2021/08/24 15:50:18;;;;;;;3.63;2.50;;;18.60;96.30;;;;;;4936938;29;20502;-76
2021/08/24 15:52:45;;;;;;;5.00;3.20;;;18.40;96.30;;;;;;4934214;29;20238;-76
2021/08/24 15:55:24;;;;;;;4.37;3.40;;;18.60;96.30;;;;;;4935276;29;20773;-75
2021/08/24 15:57:49;;;;;;;5.93;2.87;;;18.70;96.30;;;;;;4935732;29;20514;-74
2021/08/24 16:00:15;;;;;;;7.37;3.00;;;18.50;96.30;;;;;;4932856;29;20518;-75
2021/08/24 16:02:40;;;;;;;2.60;2.40;;;18.20;96.30;;;;;;4935956;29;20206;-75
2021/08/24 16:05:10;;;;;;;4.87;2.90;;;17.70;96.30;;;;;;4946960;28;20234;-76
2021/08/24 16:07:35;;;;;;;11.43;2.90;;;17.40;96.30;;;;;;4935361;29;20189;-75
2021/08/24 16:10:01;;;;;;;4.10;3.33;;;16.90;96.30;;;;;;4922868;29;20436;-75
2021/08/24 16:12:27;;;;;;;6.80;3.17;;;16.50;96.30;;;;;;4918336;29;20251;-75
2021/08/24 16:14:52;;;;;;;5.07;3.17;;;16.30;96.30;;;;;;4933108;29;20510;-75
2021/08/24 16:17:18;;;;;;;4.23;2.60;;;16.30;96.30;;;;;;4939927;29;20171;-76
2021/08/24 16:19:45;;;;;;;4.00;2.80;;;16.20;96.30;;;;;;4951619;28;20190;-75
2021/08/24 16:22:33;;;;;;;3.50;2.70;;;16.20;96.30;;;;;;4919071;29;20208;-76
2021/08/24 16:25:07;;;;;;;3.30;2.53;;;16.20;96.30;;;;;;4921513;29;20417;-75
2021/08/24 16:27:35;;;;;;;4.07;2.80;;;16.20;96.30;;;;;;4938959;29;20422;-75
2021/08/24 16:30:01;;;;;;;5.13;2.80;;;16.20;96.30;;;;;;4938187;29;20931;-75
2021/08/24 16:32:26;;;;;;;3.00;2.63;;;16.30;96.30;;;;;;4922700;29;20453;-76
2021/08/24 16:34:52;;;;;;;6.00;3.00;;;16.30;96.30;;;;;;4936021;29;20230;-81
2021/08/24 16:37:18;;;;;;;5.57;2.47;;;16.30;96.30;;;;;;4942803;29;20534;-79
2021/08/24 16:39:44;;;;;;;13.20;3.30;;;16.40;96.30;;;;;;4937507;29;20676;-77
2021/08/24 16:42:09;;;;;;;6.10;2.50;;;16.40;96.30;;;;;;4938545;29;20210;-77
2021/08/24 16:44:35;;;;;;;9.80;3.37;;;16.40;96.30;;;;;;4936493;29;20176;-79
2021/08/24 16:47:00;;;;;;;6.70;2.70;;;16.50;96.30;;;;;;4933605;29;20226;-78
2021/08/24 16:50:16;;;;;;;5.60;2.37;;;16.40;96.30;;;;;;4931183;29;20551;-80
2021/08/24 16:55:20;;;;;;;4.27;3.03;;;16.40;96.30;;;;;;5063630;23;20481;-80
2021/08/24 16:57:46;;;;;;;5.00;2.87;;;16.40;96.30;;;;;;4946772;29;20412;-79
2021/08/24 17:00:13;;;;;;;5.03;2.77;;;16.40;96.30;;;;;;4946823;29;20415;-80
2021/08/24 17:02:39;;;;;;;4.47;2.80;;;16.40;96.30;;;;;;4933788;29;20223;-79